createdAt,value
2023-02-27T04:48:20.855Z,-0.90
2023-02-27T04:51:06.505Z,-0.90
2023-02-27T04:53:43.657Z,-0.80
2023-02-27T04:56:16.411Z,-0.70
2023-02-27T04:58:54.436Z,-0.80
2023-02-27T05:01:47.704Z,-0.80
2023-02-27T05:04:18.503Z,-0.80
2023-02-27T05:06:48.199Z,-0.70
2023-02-27T05:09:19.992Z,-0.70
2023-02-27T05:12:25.811Z,-0.70
2023-02-27T05:15:13.904Z,-0.60
2023-02-27T05:17:48.931Z,-0.70
2023-02-27T05:20:17.192Z,-0.80
2023-02-27T05:22:48.589Z,-0.70
2023-02-27T05:25:27.931Z,-0.70
2023-02-27T05:28:02.552Z,-0.70
2023-02-27T05:30:36.850Z,-0.60
2023-02-27T05:33:41.372Z,-0.50
2023-02-27T05:36:17.195Z,-0.40
2023-02-27T05:38:59.450Z,-0.30
2023-02-27T05:41:31.521Z,-0.30
2023-02-27T05:44:06.484Z,-0.30
2023-02-27T05:46:41.485Z,-0.20
2023-02-27T05:49:21.137Z,-0.30
2023-02-27T05:51:51.411Z,-0.40
2023-02-27T05:55:03.259Z,-0.40
2023-02-27T05:57:36.944Z,-0.40
2023-02-27T06:00:27.589Z,-0.50
2023-02-27T06:02:54.250Z,-0.40
2023-02-27T06:05:20.933Z,-0.20
2023-02-27T06:07:47.585Z,-0.40
2023-02-27T06:10:16.261Z,-0.40
2023-02-27T06:12:43.233Z,-0.20
2023-02-27T06:15:10.696Z,-0.20
2023-02-27T06:17:37.382Z,-0.30
2023-02-27T06:20:04.304Z,-0.20
2023-02-27T06:22:30.901Z,-0.20
2023-02-27T06:24:57.560Z,-0.20
2023-02-27T06:27:24.258Z,-0.50
2023-02-27T06:29:50.822Z,-0.40
2023-02-27T06:32:17.547Z,-0.30
2023-02-27T06:34:44.154Z,-0.20
2023-02-27T06:37:10.762Z,-0.30
2023-02-27T06:39:37.624Z,-0.20
2023-02-27T06:42:04.420Z,-0.30
2023-02-27T06:44:31.036Z,0.00
2023-02-27T06:46:57.628Z,-0.10
2023-02-27T06:49:24.222Z,-0.10
2023-02-27T06:51:50.889Z,0.20
2023-02-27T06:54:17.841Z,0.00
2023-02-27T06:56:44.550Z,0.10
2023-02-27T06:59:11.273Z,0.10
2023-02-27T07:01:37.942Z,0.00
2023-02-27T07:04:04.916Z,0.10
2023-02-27T07:07:35.150Z,0.10
2023-02-27T07:09:18.347Z,0.20
2023-02-27T07:11:44.964Z,0.10
2023-02-27T07:14:12.513Z,0.00
2023-02-27T07:16:39.208Z,0.00
2023-02-27T07:19:07.445Z,0.20
2023-02-27T07:21:35.238Z,0.40
2023-02-27T07:24:04.672Z,0.10
2023-02-27T07:26:31.314Z,0.20
2023-02-27T07:28:57.969Z,0.20
2023-02-27T07:31:24.695Z,0.10
2023-02-27T07:33:51.420Z,0.10
2023-02-27T07:36:18.041Z,0.00
2023-02-27T07:38:44.694Z,0.20
2023-02-27T07:41:21.291Z,0.00
2023-02-27T07:43:56.175Z,0.10
2023-02-27T07:46:24.074Z,0.30
2023-02-27T07:48:50.752Z,0.30
2023-02-27T07:51:17.417Z,0.40
2023-02-27T07:53:44.193Z,0.40
2023-02-27T07:56:10.807Z,0.50
2023-02-27T07:58:37.412Z,0.40
2023-02-27T08:01:04.100Z,0.40
2023-02-27T08:03:30.758Z,0.60
2023-02-27T08:05:57.492Z,0.50
2023-02-27T08:08:24.578Z,0.40
2023-02-27T08:10:51.231Z,0.50
2023-02-27T08:13:24.977Z,0.50
2023-02-27T08:15:57.176Z,0.60
2023-02-27T08:18:23.993Z,0.60
2023-02-27T08:20:50.781Z,0.50
2023-02-27T08:23:17.412Z,0.60
2023-02-27T08:25:44.117Z,0.70
2023-02-27T08:28:10.716Z,0.80
2023-02-27T08:30:37.368Z,0.80
2023-02-27T08:33:04.127Z,0.80
2023-02-27T08:35:30.974Z,0.90
2023-02-27T08:37:57.888Z,0.90
2023-02-27T08:40:24.816Z,1.00
2023-02-27T08:42:51.737Z,1.20
2023-02-27T08:45:18.465Z,0.90
2023-02-27T08:47:45.320Z,0.70
2023-02-27T08:50:12.659Z,0.80
2023-02-27T08:52:39.311Z,1.00
2023-02-27T08:55:06.570Z,1.00
2023-02-27T08:57:33.269Z,0.80
2023-02-27T09:00:00.251Z,0.90
2023-02-27T09:02:27.067Z,1.10
2023-02-27T09:04:53.715Z,1.10
2023-02-27T09:07:20.698Z,1.30
2023-02-27T09:09:49.712Z,1.10
2023-02-27T09:12:16.597Z,1.10
2023-02-27T09:14:43.240Z,1.00
2023-02-27T09:17:09.938Z,1.00
2023-02-27T09:19:36.796Z,0.80
2023-02-27T09:22:03.446Z,1.00
2023-02-27T09:24:30.242Z,1.30
2023-02-27T09:26:56.894Z,1.30
2023-02-27T09:29:23.924Z,1.30
2023-02-27T09:31:50.656Z,1.40
2023-02-27T09:34:17.435Z,1.60
2023-02-27T09:36:44.068Z,1.80
2023-02-27T09:39:10.742Z,1.80
2023-02-27T09:41:51.555Z,1.90
2023-02-27T09:44:56.947Z,1.50
2023-02-27T09:47:25.861Z,1.50
2023-02-27T09:50:13.043Z,1.10
2023-02-27T09:52:39.673Z,0.90
2023-02-27T09:55:15.166Z,1.10
2023-02-27T09:58:06.735Z,1.20
2023-02-27T10:00:55.928Z,1.20
2023-02-27T10:03:57.635Z,1.20
2023-02-27T10:06:37.432Z,1.20
2023-02-27T10:09:11.238Z,1.00
2023-02-27T10:11:46.471Z,0.80
2023-02-27T10:14:22.010Z,1.00
2023-02-27T10:16:51.234Z,1.00
2023-02-27T10:19:27.242Z,0.80
2023-02-27T10:21:55.229Z,0.90
2023-02-27T10:24:44.676Z,1.10
2023-02-27T10:27:19.058Z,1.20
2023-02-27T10:29:46.812Z,1.20
2023-02-27T10:32:32.785Z,0.90
2023-02-27T10:35:27.199Z,0.90
2023-02-27T10:37:59.572Z,0.90
2023-02-27T10:40:26.837Z,0.90
2023-02-27T10:42:56.296Z,1.00
2023-02-27T10:45:23.047Z,1.20
2023-02-27T10:47:49.683Z,1.00
2023-02-27T10:50:33.233Z,1.10
2023-02-27T10:53:06.908Z,1.00
2023-02-27T10:55:38.243Z,1.10
2023-02-27T10:58:05.573Z,0.90
2023-02-27T11:00:37.871Z,1.20
2023-02-27T11:03:05.261Z,1.30
2023-02-27T11:05:34.220Z,1.30
2023-02-27T11:08:20.897Z,1.20
2023-02-27T11:10:59.527Z,1.20
2023-02-27T11:13:29.904Z,1.20
2023-02-27T11:16:15.441Z,1.10
2023-02-27T11:18:47.352Z,1.20
2023-02-27T11:21:17.015Z,1.00
2023-02-27T11:23:54.247Z,1.00
2023-02-27T11:26:26.893Z,1.00
2023-02-27T11:29:15.034Z,1.10
2023-02-27T11:32:00.302Z,1.00
2023-02-27T11:34:39.711Z,1.20
2023-02-27T11:37:18.880Z,1.20
2023-02-27T11:39:56.143Z,1.30
2023-02-27T11:42:29.156Z,1.30
2023-02-27T11:45:00.502Z,1.20
2023-02-27T11:47:31.901Z,1.20
2023-02-27T11:50:17.315Z,1.20
2023-02-27T11:53:07.201Z,1.40
2023-02-27T11:55:34.331Z,1.70
2023-02-27T11:58:16.533Z,1.70
2023-02-27T12:01:07.616Z,1.50
2023-02-27T12:03:45.281Z,1.50
2023-02-27T12:06:38.111Z,1.50
2023-02-27T12:09:30.540Z,1.50
2023-02-27T12:11:58.070Z,1.60
2023-02-27T12:14:43.256Z,1.50
2023-02-27T12:17:52.019Z,1.40
2023-02-27T12:20:22.200Z,1.50
2023-02-27T12:22:52.798Z,1.50
2023-02-27T12:25:52.614Z,1.70
2023-02-27T12:28:33.190Z,1.80
2023-02-27T12:31:27.310Z,1.70
2023-02-27T12:34:19.882Z,1.80
2023-02-27T12:36:48.488Z,1.80
2023-02-27T12:39:20.952Z,1.80
2023-02-27T12:41:53.634Z,1.90
2023-02-27T12:44:45.001Z,1.80
2023-02-27T12:47:37.570Z,1.80
2023-02-27T12:50:16.326Z,1.70
2023-02-27T12:53:01.783Z,2.00
2023-02-27T12:55:35.406Z,2.10
2023-02-27T12:58:17.272Z,2.20
2023-02-27T13:00:46.295Z,2.10
2023-02-27T13:03:22.102Z,2.30
2023-02-27T13:06:08.299Z,2.20
2023-02-27T13:08:38.253Z,2.30
2023-02-27T13:11:29.189Z,2.50
2023-02-27T13:14:08.621Z,2.60
2023-02-27T13:16:40.610Z,2.80
2023-02-27T13:19:17.213Z,3.00
2023-02-27T13:21:54.762Z,2.90
2023-02-27T13:24:27.168Z,3.30
2023-02-27T13:26:57.187Z,3.20
2023-02-27T13:29:28.045Z,2.90
2023-02-27T13:32:44.112Z,2.80
2023-02-27T13:35:51.931Z,2.70
2023-02-27T13:38:44.386Z,2.70
2023-02-27T13:41:20.287Z,2.70
2023-02-27T13:43:52.718Z,2.60
2023-02-27T13:46:23.875Z,2.60
2023-02-27T13:49:29.523Z,2.70
2023-02-27T13:52:04.824Z,2.80
2023-02-27T13:54:34.068Z,2.70
2023-02-27T13:57:03.645Z,2.70
2023-02-27T13:59:33.330Z,2.70
2023-02-27T14:02:11.014Z,2.60
2023-02-27T14:04:46.927Z,2.50
2023-02-27T14:07:21.219Z,2.40
2023-02-27T14:10:11.664Z,2.20
2023-02-27T14:12:45.830Z,2.20
2023-02-27T14:15:24.853Z,2.20
2023-02-27T14:18:12.681Z,2.40
2023-02-27T14:20:42.440Z,2.60
2023-02-27T14:23:22.664Z,2.60
2023-02-27T14:26:12.287Z,2.60
2023-02-27T14:28:55.870Z,2.60
2023-02-27T14:31:28.495Z,2.40
2023-02-27T14:33:58.781Z,2.50
2023-02-27T14:36:28.149Z,2.60
2023-02-27T14:38:57.414Z,2.30
2023-02-27T14:41:44.643Z,2.20
2023-02-27T14:44:20.495Z,2.30
2023-02-27T14:46:47.305Z,2.20
2023-02-27T14:49:24.985Z,2.00
2023-02-27T14:51:52.990Z,2.00
2023-02-27T14:54:21.778Z,2.10
2023-02-27T14:56:57.520Z,2.30
2023-02-27T14:59:30.303Z,2.20
2023-02-27T15:02:01.752Z,2.30
2023-02-27T15:04:30.953Z,2.40
2023-02-27T15:06:59.443Z,2.30
2023-02-27T15:09:44.481Z,2.00
2023-02-27T15:12:17.524Z,2.20
2023-02-27T15:14:49.524Z,2.40
2023-02-27T15:17:18.746Z,2.30
2023-02-27T15:19:48.798Z,2.30
2023-02-27T15:22:38.600Z,2.30
2023-02-27T15:25:07.678Z,2.40
2023-02-27T15:27:37.273Z,2.40
2023-02-27T15:30:04.828Z,2.50
2023-02-27T15:32:35.251Z,2.50
2023-02-27T15:35:17.183Z,2.70
2023-02-27T15:37:50.677Z,2.80
2023-02-27T15:40:32.858Z,2.90
2023-02-27T15:43:00.988Z,2.90
2023-02-27T15:45:36.039Z,3.00
2023-02-27T15:48:03.944Z,3.10
2023-02-27T15:50:37.118Z,3.00
2023-02-27T15:53:09.241Z,2.80
2023-02-27T15:55:39.591Z,2.50
2023-02-27T15:58:30.533Z,2.50
2023-02-27T16:01:11.280Z,2.40
2023-02-27T16:03:45.836Z,2.30
2023-02-27T16:06:19.016Z,2.40
2023-02-27T16:08:50.939Z,2.50
2023-02-27T16:11:22.331Z,2.50
2023-02-27T16:13:49.796Z,2.50
2023-02-27T16:16:45.801Z,2.50
2023-02-27T16:19:26.775Z,2.50
2023-02-27T16:22:06.765Z,2.60
2023-02-27T16:24:33.979Z,2.60
2023-02-27T16:27:01.753Z,2.50
2023-02-27T16:29:39.783Z,2.30
2023-02-27T16:32:06.686Z,2.30
2023-02-27T16:34:45.456Z,2.30
2023-02-27T16:37:27.017Z,2.30
2023-02-27T16:39:54.355Z,2.20
2023-02-27T16:42:21.481Z,2.00
2023-02-27T16:44:48.409Z,2.10
2023-02-27T16:47:15.078Z,2.10
2023-02-27T16:49:44.128Z,2.30
2023-02-27T16:52:11.505Z,2.20
2023-02-27T16:54:38.323Z,2.00
2023-02-27T16:57:05.104Z,2.00
2023-02-27T16:59:40.933Z,2.10
2023-02-27T17:02:13.241Z,1.90
2023-02-27T17:04:43.799Z,1.80
2023-02-27T17:07:15.723Z,1.90
2023-02-27T17:09:46.132Z,1.90
2023-02-27T17:12:13.239Z,1.80
2023-02-27T17:14:39.876Z,1.80
2023-02-27T17:17:06.872Z,1.80
2023-02-27T17:19:33.974Z,1.90
2023-02-27T17:22:00.592Z,2.00
2023-02-27T17:24:27.291Z,1.90
2023-02-27T17:26:54.072Z,1.90
2023-02-27T17:29:21.500Z,1.80
2023-02-27T17:31:48.393Z,1.80
2023-02-27T17:34:16.740Z,1.70
2023-02-27T17:36:43.884Z,1.70
2023-02-27T17:39:14.702Z,1.50
2023-02-27T17:41:43.017Z,1.30
2023-02-27T17:44:11.397Z,1.30
2023-02-27T17:46:39.388Z,1.50
2023-02-27T17:49:06.596Z,1.50
2023-02-27T17:51:33.815Z,1.30
2023-02-27T17:54:02.592Z,1.20
2023-02-27T17:56:29.655Z,1.00
2023-02-27T17:58:56.828Z,1.10
2023-02-27T18:01:25.827Z,1.10
2023-02-27T18:03:54.670Z,1.10
2023-02-27T18:06:22.455Z,1.20
2023-02-27T18:08:49.356Z,1.00
2023-02-27T18:11:19.448Z,1.20
2023-02-27T18:13:46.784Z,1.30
2023-02-27T18:16:14.216Z,1.30
2023-02-27T18:18:42.794Z,1.40
2023-02-27T18:21:20.115Z,1.40
2023-02-27T18:23:47.900Z,1.40
2023-02-27T18:26:29.063Z,1.40
2023-02-27T18:29:10.206Z,1.50
2023-02-27T18:31:42.838Z,1.60
2023-02-27T18:34:09.633Z,1.60
2023-02-27T18:36:37.076Z,1.50
2023-02-27T18:39:04.892Z,1.50
2023-02-27T18:41:31.832Z,1.30
2023-02-27T18:43:58.693Z,1.20
2023-02-27T18:46:25.784Z,1.10
2023-02-27T18:48:52.492Z,1.10
2023-02-27T18:51:19.444Z,1.20
2023-02-27T18:53:48.321Z,1.30
2023-02-27T18:56:17.404Z,1.20
2023-02-27T18:58:44.098Z,1.10
2023-02-27T19:01:23.272Z,1.10
2023-02-27T19:03:50.613Z,1.30
2023-02-27T19:06:17.687Z,1.50
2023-02-27T19:08:44.916Z,1.50
2023-02-27T19:11:34.491Z,1.60
2023-02-27T19:14:07.973Z,1.50
2023-02-27T19:16:35.132Z,1.60
2023-02-27T19:19:03.158Z,1.50
2023-02-27T19:21:29.852Z,1.30
2023-02-27T19:23:56.710Z,1.10
2023-02-27T19:26:24.474Z,1.30
2023-02-27T19:28:53.658Z,1.30
2023-02-27T19:31:21.026Z,1.40
2023-02-27T19:33:47.916Z,1.50
2023-02-27T19:36:17.669Z,1.30
2023-02-27T19:38:44.332Z,1.60
2023-02-27T19:41:13.278Z,1.60
2023-02-27T19:43:41.244Z,1.50
2023-02-27T19:46:10.957Z,1.40
2023-02-27T19:48:38.234Z,1.40
2023-02-27T19:51:06.365Z,1.20
2023-02-27T19:53:35.796Z,1.20
2023-02-27T19:56:04.902Z,1.20
2023-02-27T19:58:33.438Z,1.20
2023-02-27T20:01:00.574Z,1.20
2023-02-27T20:03:27.751Z,1.20
2023-02-27T20:05:54.800Z,1.00
2023-02-27T20:08:21.591Z,1.10
2023-02-27T20:10:58.913Z,1.30
2023-02-27T20:13:26.612Z,1.20
2023-02-27T20:16:02.033Z,1.20
2023-02-27T20:18:29.969Z,1.00
2023-02-27T20:21:05.237Z,1.20
2023-02-27T20:23:33.699Z,1.00
2023-02-27T20:26:00.475Z,1.00
2023-02-27T20:28:31.856Z,1.00
2023-02-27T20:30:58.492Z,1.00
2023-02-27T20:33:25.081Z,0.90
2023-02-27T20:35:51.736Z,0.60
2023-02-27T20:38:19.859Z,0.60
2023-02-27T20:40:46.533Z,0.70
2023-02-27T20:43:13.163Z,0.70
2023-02-27T20:45:40.558Z,0.60
2023-02-27T20:48:07.557Z,0.80
2023-02-27T20:50:34.881Z,0.80
2023-02-27T20:53:01.611Z,0.80
2023-02-27T20:55:28.345Z,0.80
2023-02-27T20:57:55.022Z,0.90
2023-02-27T21:00:22.226Z,0.80
2023-02-27T21:02:48.901Z,0.70
2023-02-27T21:05:15.607Z,0.70
2023-02-27T21:07:42.273Z,0.60
2023-02-27T21:10:09.598Z,0.50
2023-02-27T21:12:36.340Z,0.70
2023-02-27T21:15:03.506Z,0.50
2023-02-27T21:17:30.186Z,0.60
2023-02-27T21:19:56.787Z,0.50
2023-02-27T21:22:23.591Z,0.40
2023-02-27T21:24:52.370Z,0.60
2023-02-27T21:27:21.259Z,0.70
2023-02-27T21:29:48.759Z,0.70
2023-02-27T21:32:15.528Z,0.60
2023-02-27T21:34:42.266Z,0.60
2023-02-27T21:37:10.583Z,0.50
2023-02-27T21:39:37.256Z,0.50
2023-02-27T21:42:04.441Z,0.30
2023-02-27T21:44:31.952Z,0.30
2023-02-27T21:46:58.885Z,0.40
2023-02-27T21:49:27.755Z,0.40
2023-02-27T21:51:54.521Z,0.40
2023-02-27T21:54:21.458Z,0.50
2023-02-27T21:56:49.759Z,0.70
2023-02-27T21:59:18.036Z,0.70
2023-02-27T22:01:48.395Z,0.70
2023-02-27T22:04:16.820Z,0.70
2023-02-27T22:06:43.799Z,0.50
2023-02-27T22:09:10.501Z,0.60
2023-02-27T22:11:37.646Z,0.50
2023-02-27T22:14:06.490Z,0.50
2023-02-27T22:16:33.745Z,0.50
2023-02-27T22:19:08.464Z,0.30
2023-02-27T22:21:37.041Z,0.40
2023-02-27T22:24:04.119Z,0.40
2023-02-27T22:26:32.030Z,0.40
2023-02-27T22:28:59.346Z,0.40
2023-02-27T22:31:29.763Z,0.50
2023-02-27T22:34:00.900Z,0.50
2023-02-27T22:36:29.690Z,0.60
2023-02-27T22:38:56.599Z,0.50
2023-02-27T22:41:29.555Z,0.30
2023-02-27T22:43:57.223Z,0.20
2023-02-27T22:46:29.661Z,0.20
2023-02-27T22:48:57.812Z,0.30
2023-02-27T22:51:25.415Z,0.10
2023-02-27T22:53:52.058Z,0.40
2023-02-27T22:56:18.779Z,0.30
2023-02-27T22:58:45.836Z,0.50
2023-02-27T23:01:16.152Z,0.60
2023-02-27T23:03:44.033Z,0.40
2023-02-27T23:06:13.804Z,0.20
2023-02-27T23:08:41.109Z,0.30
2023-02-27T23:11:08.628Z,0.30
2023-02-27T23:13:35.460Z,0.40
2023-02-27T23:16:11.077Z,0.40
2023-02-27T23:18:43.434Z,0.20
2023-02-27T23:21:10.286Z,0.50
2023-02-27T23:23:36.965Z,0.50
2023-02-27T23:26:05.621Z,0.40
2023-02-27T23:28:33.902Z,0.50
2023-02-27T23:31:01.008Z,0.80
2023-02-27T23:33:28.729Z,0.50
2023-02-27T23:35:55.887Z,0.40
2023-02-27T23:38:22.566Z,0.60
2023-02-27T23:40:49.600Z,0.60
2023-02-27T23:43:16.503Z,0.60
2023-02-27T23:45:43.318Z,0.50
2023-02-27T23:48:10.045Z,0.70
2023-02-27T23:50:46.683Z,0.90
2023-02-27T23:53:13.671Z,0.70
2023-02-27T23:55:41.109Z,0.30
2023-02-27T23:58:10.087Z,0.20
